sensor_id;sensor_type;location;lat;lon;timestamp;pressure;altitude;pressure_sealevel;temperature;humidity
7834;BME280;3962;42.696;23.354;2023-05-07T00:01:07;95407.00;;;10.84;87.83
7834;BME280;3962;42.696;23.354;2023-05-07T00:03:34;95413.03;;;10.87;88.41
7834;BME280;3962;42.696;23.354;2023-05-07T00:06:02;95415.94;;;10.93;88.90
7834;BME280;3962;42.696;23.354;2023-05-07T00:08:28;95411.78;;;10.81;89.10
7834;BME280;3962;42.696;23.354;2023-05-07T00:10:55;95415.88;;;10.76;89.84
7834;BME280;3962;42.696;23.354;2023-05-07T00:13:23;95419.53;;;10.65;90.34
7834;BME280;3962;42.696;23.354;2023-05-07T00:15:50;95414.06;;;10.76;90.43
7834;BME280;3962;42.696;23.354;2023-05-07T00:18:17;95406.22;;;10.75;91.00
7834;BME280;3962;42.696;23.354;2023-05-07T00:20:46;95412.63;;;10.82;91.02
7834;BME280;3962;42.696;23.354;2023-05-07T00:23:13;95412.22;;;10.77;90.84
7834;BME280;3962;42.696;23.354;2023-05-07T00:25:39;95405.06;;;10.87;91.04
7834;BME280;3962;42.696;23.354;2023-05-07T00:28:06;95404.91;;;10.88;90.17
7834;BME280;3962;42.696;23.354;2023-05-07T00:30:34;95404.66;;;10.82;89.43
7834;BME280;3962;42.696;23.354;2023-05-07T00:33:01;95399.22;;;10.74;89.44
7834;BME280;3962;42.696;23.354;2023-05-07T00:35:28;95394.34;;;10.60;89.33
7834;BME280;3962;42.696;23.354;2023-05-07T00:37:55;95398.19;;;10.48;89.54
7834;BME280;3962;42.696;23.354;2023-05-07T00:40:22;95400.00;;;10.47;88.97
7834;BME280;3962;42.696;23.354;2023-05-07T00:42:48;95413.16;;;10.39;89.27
7834;BME280;3962;42.696;23.354;2023-05-07T00:45:16;95409.69;;;10.29;89.57
7834;BME280;3962;42.696;23.354;2023-05-07T00:47:44;95414.03;;;10.30;89.74
7834;BME280;3962;42.696;23.354;2023-05-07T00:50:11;95414.47;;;10.26;90.08
7834;BME280;3962;42.696;23.354;2023-05-07T00:52:38;95404.25;;;10.31;90.08
7834;BME280;3962;42.696;23.354;2023-05-07T00:55:07;95417.25;;;10.34;89.32
7834;BME280;3962;42.696;23.354;2023-05-07T00:57:36;95410.69;;;10.28;89.38
7834;BME280;3962;42.696;23.354;2023-05-07T01:00:06;95418.66;;;10.19;89.71
7834;BME280;3962;42.696;23.354;2023-05-07T01:02:34;95414.47;;;10.16;90.22
7834;BME280;3962;42.696;23.354;2023-05-07T01:05:04;95418.53;;;10.20;90.09
7834;BME280;3962;42.696;23.354;2023-05-07T01:07:32;95422.84;;;10.21;89.76
7834;BME280;3962;42.696;23.354;2023-05-07T01:10:00;95417.84;;;10.09;89.73
7834;BME280;3962;42.696;23.354;2023-05-07T01:12:28;95419.47;;;10.00;90.22
7834;BME280;3962;42.696;23.354;2023-05-07T01:14:55;95418.50;;;9.92;90.18
7834;BME280;3962;42.696;23.354;2023-05-07T01:17:22;95417.25;;;9.96;90.50
7834;BME280;3962;42.696;23.354;2023-05-07T01:19:49;95410.84;;;10.08;90.53
7834;BME280;3962;42.696;23.354;2023-05-07T01:22:24;95409.31;;;10.05;89.92
7834;BME280;3962;42.696;23.354;2023-05-07T01:24:54;95419.22;;;9.94;89.55
7834;BME280;3962;42.696;23.354;2023-05-07T01:27:21;95402.44;;;9.84;90.04
7834;BME280;3962;42.696;23.354;2023-05-07T01:29:48;95415.44;;;10.06;89.37
7834;BME280;3962;42.696;23.354;2023-05-07T01:32:17;95413.47;;;10.17;88.60
7834;BME280;3962;42.696;23.354;2023-05-07T01:34:46;95415.72;;;10.22;88.17
7834;BME280;3962;42.696;23.354;2023-05-07T01:37:14;95407.72;;;10.22;87.68
7834;BME280;3962;42.696;23.354;2023-05-07T01:39:43;95413.34;;;10.09;87.70
7834;BME280;3962;42.696;23.354;2023-05-07T01:42:10;95408.72;;;9.92;88.28
7834;BME280;3962;42.696;23.354;2023-05-07T01:44:38;95392.34;;;9.78;88.95
7834;BME280;3962;42.696;23.354;2023-05-07T01:47:06;95402.00;;;9.79;89.21
7834;BME280;3962;42.696;23.354;2023-05-07T01:49:33;95404.94;;;9.76;89.60
7834;BME280;3962;42.696;23.354;2023-05-07T01:52:00;95395.00;;;9.78;89.75
7834;BME280;3962;42.696;23.354;2023-05-07T01:54:27;95395.69;;;9.70;90.04
7834;BME280;3962;42.696;23.354;2023-05-07T01:56:56;95402.38;;;9.55;91.06
7834;BME280;3962;42.696;23.354;2023-05-07T01:59:23;95387.00;;;9.40;91.15
7834;BME280;3962;42.696;23.354;2023-05-07T02:01:50;95388.66;;;9.31;91.92
7834;BME280;3962;42.696;23.354;2023-05-07T02:04:17;95395.22;;;9.27;91.87
7834;BME280;3962;42.696;23.354;2023-05-07T02:06:49;95388.94;;;9.28;91.97
7834;BME280;3962;42.696;23.354;2023-05-07T02:09:21;95375.50;;;9.20;92.24
7834;BME280;3962;42.696;23.354;2023-05-07T02:11:49;95380.13;;;9.18;92.21
7834;BME280;3962;42.696;23.354;2023-05-07T02:14:17;95376.06;;;9.14;92.52
7834;BME280;3962;42.696;23.354;2023-05-07T02:16:45;95369.19;;;9.12;92.61
7834;BME280;3962;42.696;23.354;2023-05-07T02:19:12;95370.75;;;9.05;92.79
7834;BME280;3962;42.696;23.354;2023-05-07T02:21:39;95375.16;;;8.95;93.01
7834;BME280;3962;42.696;23.354;2023-05-07T02:24:05;95372.91;;;8.90;93.28
7834;BME280;3962;42.696;23.354;2023-05-07T02:26:32;95375.56;;;8.90;93.41
7834;BME280;3962;42.696;23.354;2023-05-07T02:29:09;95374.22;;;9.05;94.12
7834;BME280;3962;42.696;23.354;2023-05-07T02:31:37;95368.25;;;9.22;94.04
7834;BME280;3962;42.696;23.354;2023-05-07T02:34:04;95370.94;;;9.41;94.27
7834;BME280;3962;42.696;23.354;2023-05-07T02:36:31;95362.41;;;9.57;93.67
7834;BME280;3962;42.696;23.354;2023-05-07T02:38:58;95378.22;;;9.58;92.62
7834;BME280;3962;42.696;23.354;2023-05-07T02:41:25;95366.47;;;9.51;92.45
7834;BME280;3962;42.696;23.354;2023-05-07T02:43:53;95365.34;;;9.44;92.58
7834;BME280;3962;42.696;23.354;2023-05-07T02:46:20;95374.00;;;9.46;92.61
7834;BME280;3962;42.696;23.354;2023-05-07T02:48:48;95369.25;;;9.50;93.69
7834;BME280;3962;42.696;23.354;2023-05-07T02:51:16;95365.66;;;9.70;93.90
7834;BME280;3962;42.696;23.354;2023-05-07T02:53:43;95376.66;;;9.75;94.52
7834;BME280;3962;42.696;23.354;2023-05-07T02:56:09;95363.81;;;9.80;94.10
7834;BME280;3962;42.696;23.354;2023-05-07T02:58:36;95361.88;;;9.72;93.82
7834;BME280;3962;42.696;23.354;2023-05-07T03:01:04;95369.69;;;9.83;93.89
7834;BME280;3962;42.696;23.354;2023-05-07T03:03:32;95370.94;;;9.89;94.64
7834;BME280;3962;42.696;23.354;2023-05-07T03:06:00;95374.56;;;9.88;94.92
7834;BME280;3962;42.696;23.354;2023-05-07T03:08:27;95372.78;;;9.79;94.54
7834;BME280;3962;42.696;23.354;2023-05-07T03:10:54;95379.88;;;9.78;94.83
7834;BME280;3962;42.696;23.354;2023-05-07T03:13:20;95366.63;;;9.69;95.07
7834;BME280;3962;42.696;23.354;2023-05-07T03:15:47;95386.34;;;9.76;95.16
7834;BME280;3962;42.696;23.354;2023-05-07T03:18:14;95390.53;;;9.69;95.05
7834;BME280;3962;42.696;23.354;2023-05-07T03:20:41;95389.00;;;9.66;95.17
7834;BME280;3962;42.696;23.354;2023-05-07T03:23:09;95393.44;;;9.66;95.18
7834;BME280;3962;42.696;23.354;2023-05-07T03:25:58;95395.56;;;9.72;95.36
7834;BME280;3962;42.696;23.354;2023-05-07T03:28:25;95400.31;;;9.78;95.72
7834;BME280;3962;42.696;23.354;2023-05-07T03:30:57;95397.25;;;9.82;95.62
7834;BME280;3962;42.696;23.354;2023-05-07T03:33:25;95399.06;;;9.91;95.74
7834;BME280;3962;42.696;23.354;2023-05-07T03:35:53;95393.75;;;9.91;95.47
7834;BME280;3962;42.696;23.354;2023-05-07T03:38:21;95403.97;;;10.05;94.96
7834;BME280;3962;42.696;23.354;2023-05-07T03:40:48;95403.25;;;10.22;95.05
7834;BME280;3962;42.696;23.354;2023-05-07T03:43:15;95407.59;;;10.33;95.09
7834;BME280;3962;42.696;23.354;2023-05-07T03:45:41;95409.53;;;10.40;94.46
7834;BME280;3962;42.696;23.354;2023-05-07T03:48:08;95407.25;;;10.55;95.34
7834;BME280;3962;42.696;23.354;2023-05-07T03:50:35;95408.44;;;10.70;94.47
7834;BME280;3962;42.696;23.354;2023-05-07T03:53:02;95407.19;;;10.74;94.69
7834;BME280;3962;42.696;23.354;2023-05-07T03:55:30;95416.72;;;10.76;93.79
7834;BME280;3962;42.696;23.354;2023-05-07T03:57:57;95415.03;;;10.75;93.21
7834;BME280;3962;42.696;23.354;2023-05-07T04:00:24;95418.09;;;10.80;93.30
7834;BME280;3962;42.696;23.354;2023-05-07T04:02:50;95426.25;;;10.79;93.08
7834;BME280;3962;42.696;23.354;2023-05-07T04:05:17;95421.47;;;10.82;93.15
7834;BME280;3962;42.696;23.354;2023-05-07T04:07:44;95426.13;;;10.71;93.04
7834;BME280;3962;42.696;23.354;2023-05-07T04:10:11;95432.88;;;10.56;92.07
7834;BME280;3962;42.696;23.354;2023-05-07T04:12:40;95434.31;;;10.41;91.62
7834;BME280;3962;42.696;23.354;2023-05-07T04:15:07;95438.94;;;10.39;92.05
7834;BME280;3962;42.696;23.354;2023-05-07T04:17:35;95440.09;;;10.08;92.40
7834;BME280;3962;42.696;23.354;2023-05-07T04:20:03;95455.72;;;9.92;92.40
7834;BME280;3962;42.696;23.354;2023-05-07T04:22:31;95452.34;;;9.80;93.04
7834;BME280;3962;42.696;23.354;2023-05-07T04:24:58;95454.16;;;9.80;93.20
7834;BME280;3962;42.696;23.354;2023-05-07T04:27:25;95464.09;;;9.87;92.86
7834;BME280;3962;42.696;23.354;2023-05-07T04:29:54;95465.22;;;9.94;92.53
7834;BME280;3962;42.696;23.354;2023-05-07T04:32:22;95463.69;;;10.01;92.54
7834;BME280;3962;42.696;23.354;2023-05-07T04:34:50;95465.41;;;10.21;92.13
7834;BME280;3962;42.696;23.354;2023-05-07T04:37:17;95459.53;;;10.27;91.37
7834;BME280;3962;42.696;23.354;2023-05-07T04:39:44;95473.53;;;10.39;90.99
7834;BME280;3962;42.696;23.354;2023-05-07T04:42:14;95474.84;;;10.62;90.04
7834;BME280;3962;42.696;23.354;2023-05-07T04:44:41;95473.47;;;10.67;88.86
7834;BME280;3962;42.696;23.354;2023-05-07T04:47:09;95471.63;;;10.77;88.95
7834;BME280;3962;42.696;23.354;2023-05-07T04:49:36;95470.38;;;10.72;88.94
7834;BME280;3962;42.696;23.354;2023-05-07T04:52:03;95466.97;;;10.79;88.89
7834;BME280;3962;42.696;23.354;2023-05-07T04:54:30;95468.94;;;10.87;88.61
7834;BME280;3962;42.696;23.354;2023-05-07T04:56:57;95473.63;;;11.02;88.26
7834;BME280;3962;42.696;23.354;2023-05-07T04:59:24;95471.41;;;10.97;87.99
7834;BME280;3962;42.696;23.354;2023-05-07T05:01:50;95473.06;;;11.08;88.10
7834;BME280;3962;42.696;23.354;2023-05-07T05:04:18;95469.50;;;11.26;87.76
7834;BME280;3962;42.696;23.354;2023-05-07T05:06:45;95470.41;;;11.35;87.21
7834;BME280;3962;42.696;23.354;2023-05-07T05:09:12;95464.50;;;11.41;85.94
7834;BME280;3962;42.696;23.354;2023-05-07T05:11:39;95466.53;;;11.56;85.76
7834;BME280;3962;42.696;23.354;2023-05-07T05:14:06;95450.69;;;11.55;85.71
7834;BME280;3962;42.696;23.354;2023-05-07T05:16:33;95470.34;;;11.81;85.63
7834;BME280;3962;42.696;23.354;2023-05-07T05:19:01;95471.72;;;11.85;85.85
7834;BME280;3962;42.696;23.354;2023-05-07T05:21:30;95463.59;;;12.04;85.14
7834;BME280;3962;42.696;23.354;2023-05-07T05:23:57;95455.88;;;12.18;84.77
7834;BME280;3962;42.696;23.354;2023-05-07T05:26:24;95471.44;;;12.23;84.13
7834;BME280;3962;42.696;23.354;2023-05-07T05:28:51;95464.94;;;12.43;83.08
7834;BME280;3962;42.696;23.354;2023-05-07T05:31:18;95467.22;;;12.55;82.69
7834;BME280;3962;42.696;23.354;2023-05-07T05:33:45;95445.19;;;12.53;82.16
7834;BME280;3962;42.696;23.354;2023-05-07T05:36:11;95475.94;;;12.83;81.42
7834;BME280;3962;42.696;23.354;2023-05-07T05:38:40;95468.06;;;12.99;81.34
7834;BME280;3962;42.696;23.354;2023-05-07T05:41:06;95477.72;;;13.17;80.70
7834;BME280;3962;42.696;23.354;2023-05-07T05:43:33;95473.94;;;13.28;80.42
7834;BME280;3962;42.696;23.354;2023-05-07T05:46:00;95478.13;;;13.30;80.44
7834;BME280;3962;42.696;23.354;2023-05-07T05:48:28;95476.16;;;13.40;80.70
7834;BME280;3962;42.696;23.354;2023-05-07T05:50:55;95477.50;;;13.44;80.38
7834;BME280;3962;42.696;23.354;2023-05-07T05:53:22;95477.75;;;13.59;80.70
7834;BME280;3962;42.696;23.354;2023-05-07T05:55:50;95473.78;;;13.71;80.02
7834;BME280;3962;42.696;23.354;2023-05-07T05:58:16;95466.09;;;13.68;80.00
7834;BME280;3962;42.696;23.354;2023-05-07T06:00:44;95472.63;;;13.73;79.28
7834;BME280;3962;42.696;23.354;2023-05-07T06:03:11;95471.31;;;13.77;79.14
7834;BME280;3962;42.696;23.354;2023-05-07T06:05:37;95483.34;;;13.81;79.16
7834;BME280;3962;42.696;23.354;2023-05-07T06:08:04;95485.03;;;13.82;79.07
7834;BME280;3962;42.696;23.354;2023-05-07T06:10:31;95479.69;;;13.90;78.98
7834;BME280;3962;42.696;23.354;2023-05-07T06:12:59;95482.13;;;14.09;78.65
7834;BME280;3962;42.696;23.354;2023-05-07T06:15:26;95483.00;;;14.18;77.69
7834;BME280;3962;42.696;23.354;2023-05-07T06:17:53;95478.50;;;14.26;77.73
7834;BME280;3962;42.696;23.354;2023-05-07T06:20:21;95476.34;;;14.38;77.31
7834;BME280;3962;42.696;23.354;2023-05-07T06:22:48;95471.50;;;14.41;76.79
7834;BME280;3962;42.696;23.354;2023-05-07T06:25:14;95470.16;;;14.45;77.10
7834;BME280;3962;42.696;23.354;2023-05-07T06:27:44;95452.75;;;14.49;76.91
7834;BME280;3962;42.696;23.354;2023-05-07T06:30:22;95465.81;;;14.68;76.80
7834;BME280;3962;42.696;23.354;2023-05-07T06:32:54;95456.75;;;14.69;76.46
7834;BME280;3962;42.696;23.354;2023-05-07T06:35:21;95465.63;;;14.85;75.69
7834;BME280;3962;42.696;23.354;2023-05-07T06:37:47;95455.44;;;14.89;76.00
7834;BME280;3962;42.696;23.354;2023-05-07T06:40:14;95459.59;;;15.07;75.31
7834;BME280;3962;42.696;23.354;2023-05-07T06:42:42;95460.56;;;15.22;74.48
7834;BME280;3962;42.696;23.354;2023-05-07T06:45:09;95459.34;;;15.41;73.79
7834;BME280;3962;42.696;23.354;2023-05-07T06:47:38;95448.97;;;15.46;73.24
7834;BME280;3962;42.696;23.354;2023-05-07T06:50:06;95446.81;;;15.41;73.36
7834;BME280;3962;42.696;23.354;2023-05-07T06:52:33;95440.91;;;15.84;73.68
7834;BME280;3962;42.696;23.354;2023-05-07T06:54:59;95448.81;;;17.21;69.75
7834;BME280;3962;42.696;23.354;2023-05-07T06:57:26;95443.00;;;18.40;64.58
7834;BME280;3962;42.696;23.354;2023-05-07T06:59:53;95442.06;;;18.89;61.99
7834;BME280;3962;42.696;23.354;2023-05-07T07:02:20;95447.00;;;19.06;60.77
7834;BME280;3962;42.696;23.354;2023-05-07T07:04:48;95448.31;;;19.38;59.67
7834;BME280;3962;42.696;23.354;2023-05-07T07:07:14;95447.97;;;19.81;58.38
7834;BME280;3962;42.696;23.354;2023-05-07T07:09:41;95449.03;;;20.14;56.80
7834;BME280;3962;42.696;23.354;2023-05-07T07:12:08;95452.53;;;20.75;55.51
7834;BME280;3962;42.696;23.354;2023-05-07T07:14:35;95449.72;;;21.22;53.54
7834;BME280;3962;42.696;23.354;2023-05-07T07:17:02;95458.38;;;22.02;52.59
7834;BME280;3962;42.696;23.354;2023-05-07T07:19:30;95456.22;;;22.23;51.83
7834;BME280;3962;42.696;23.354;2023-05-07T07:21:58;95447.09;;;22.11;50.78
7834;BME280;3962;42.696;23.354;2023-05-07T07:24:25;95440.94;;;21.85;51.23
7834;BME280;3962;42.696;23.354;2023-05-07T07:26:52;95447.16;;;21.92;51.06
7834;BME280;3962;42.696;23.354;2023-05-07T07:29:20;95440.03;;;22.04;50.44
7834;BME280;3962;42.696;23.354;2023-05-07T07:31:48;95438.94;;;22.18;50.46
7834;BME280;3962;42.696;23.354;2023-05-07T07:34:15;95444.16;;;22.19;50.21
7834;BME280;3962;42.696;23.354;2023-05-07T07:36:42;95449.34;;;22.27;49.98
7834;BME280;3962;42.696;23.354;2023-05-07T07:39:10;95452.88;;;22.28;49.76
7834;BME280;3962;42.696;23.354;2023-05-07T07:41:37;95455.13;;;22.37;49.69
7834;BME280;3962;42.696;23.354;2023-05-07T07:44:04;95450.81;;;22.74;48.48
7834;BME280;3962;42.696;23.354;2023-05-07T07:46:32;95455.16;;;22.31;49.34
7834;BME280;3962;42.696;23.354;2023-05-07T07:48:59;95448.53;;;22.14;49.86
7834;BME280;3962;42.696;23.354;2023-05-07T07:51:26;95453.06;;;22.33;49.78
7834;BME280;3962;42.696;23.354;2023-05-07T07:53:53;95454.63;;;22.60;49.52
7834;BME280;3962;42.696;23.354;2023-05-07T07:56:21;95452.13;;;22.96;48.69
7834;BME280;3962;42.696;23.354;2023-05-07T07:58:48;95457.41;;;23.21;47.57
7834;BME280;3962;42.696;23.354;2023-05-07T08:01:15;95440.63;;;23.00;47.13
7834;BME280;3962;42.696;23.354;2023-05-07T08:03:42;95448.38;;;23.52;47.95
7834;BME280;3962;42.696;23.354;2023-05-07T08:06:09;95449.97;;;23.84;47.04
7834;BME280;3962;42.696;23.354;2023-05-07T08:08:36;95442.00;;;23.40;46.43
7834;BME280;3962;42.696;23.354;2023-05-07T08:11:02;95442.41;;;23.12;47.21
7834;BME280;3962;42.696;23.354;2023-05-07T08:13:31;95447.53;;;23.76;46.45
7834;BME280;3962;42.696;23.354;2023-05-07T08:15:58;95434.53;;;24.20;45.33
7834;BME280;3962;42.696;23.354;2023-05-07T08:18:25;95441.09;;;24.13;45.24
7834;BME280;3962;42.696;23.354;2023-05-07T08:20:53;95439.28;;;23.64;46.60
7834;BME280;3962;42.696;23.354;2023-05-07T08:23:20;95445.91;;;23.50;45.74
7834;BME280;3962;42.696;23.354;2023-05-07T08:25:47;95439.97;;;23.35;46.19
7834;BME280;3962;42.696;23.354;2023-05-07T08:28:14;95444.72;;;23.64;45.06
7834;BME280;3962;42.696;23.354;2023-05-07T08:30:42;95437.78;;;23.68;45.15
7834;BME280;3962;42.696;23.354;2023-05-07T08:33:09;95426.91;;;23.44;45.12
7834;BME280;3962;42.696;23.354;2023-05-07T08:35:36;95420.13;;;24.02;44.53
7834;BME280;3962;42.696;23.354;2023-05-07T08:38:03;95438.59;;;24.47;43.42
7834;BME280;3962;42.696;23.354;2023-05-07T08:40:38;95431.69;;;24.81;42.34
7834;BME280;3962;42.696;23.354;2023-05-07T08:43:06;95433.31;;;25.11;41.94
7834;BME280;3962;42.696;23.354;2023-05-07T08:45:34;95431.41;;;25.00;41.82
7834;BME280;3962;42.696;23.354;2023-05-07T08:48:05;95419.97;;;24.33;42.29
7834;BME280;3962;42.696;23.354;2023-05-07T08:50:35;95417.78;;;24.05;42.63
7834;BME280;3962;42.696;23.354;2023-05-07T08:53:02;95419.34;;;24.13;42.41
7834;BME280;3962;42.696;23.354;2023-05-07T08:55:30;95418.69;;;24.35;42.29
7834;BME280;3962;42.696;23.354;2023-05-07T08:57:56;95415.66;;;24.43;41.64
7834;BME280;3962;42.696;23.354;2023-05-07T09:00:23;95415.91;;;24.71;40.91
7834;BME280;3962;42.696;23.354;2023-05-07T09:02:51;95404.78;;;25.02;39.59
7834;BME280;3962;42.696;23.354;2023-05-07T09:05:20;95401.09;;;24.97;39.39
7834;BME280;3962;42.696;23.354;2023-05-07T09:07:47;95399.44;;;24.48;39.57
7834;BME280;3962;42.696;23.354;2023-05-07T09:10:16;95403.09;;;24.60;40.31
7834;BME280;3962;42.696;23.354;2023-05-07T09:12:42;95400.53;;;24.77;40.44
7834;BME280;3962;42.696;23.354;2023-05-07T09:15:10;95401.47;;;25.00;40.47
7834;BME280;3962;42.696;23.354;2023-05-07T09:17:37;95394.84;;;25.37;39.21
7834;BME280;3962;42.696;23.354;2023-05-07T09:20:05;95390.19;;;25.26;38.73
7834;BME280;3962;42.696;23.354;2023-05-07T09:22:35;95390.94;;;24.63;38.96
7834;BME280;3962;42.696;23.354;2023-05-07T09:25:03;95405.47;;;24.50;39.29
7834;BME280;3962;42.696;23.354;2023-05-07T09:27:30;95392.56;;;24.46;39.60
7834;BME280;3962;42.696;23.354;2023-05-07T09:29:57;95378.28;;;24.50;39.47
7834;BME280;3962;42.696;23.354;2023-05-07T09:32:25;95383.09;;;24.55;39.38
7834;BME280;3962;42.696;23.354;2023-05-07T09:34:52;95370.25;;;24.73;38.79
7834;BME280;3962;42.696;23.354;2023-05-07T09:37:19;95376.78;;;24.54;39.09
7834;BME280;3962;42.696;23.354;2023-05-07T09:39:49;95373.16;;;24.42;38.92
7834;BME280;3962;42.696;23.354;2023-05-07T09:42:22;95370.41;;;24.13;39.38
7834;BME280;3962;42.696;23.354;2023-05-07T09:44:50;95372.38;;;24.24;39.25
7834;BME280;3962;42.696;23.354;2023-05-07T09:47:19;95360.06;;;24.69;39.35
7834;BME280;3962;42.696;23.354;2023-05-07T09:49:48;95340.34;;;24.85;38.67
7834;BME280;3962;42.696;23.354;2023-05-07T09:52:16;95370.22;;;25.03;37.94
7834;BME280;3962;42.696;23.354;2023-05-07T09:54:43;95350.63;;;24.83;38.84
7834;BME280;3962;42.696;23.354;2023-05-07T09:57:13;95353.72;;;24.86;37.24
7834;BME280;3962;42.696;23.354;2023-05-07T09:59:42;95358.94;;;25.29;36.94
7834;BME280;3962;42.696;23.354;2023-05-07T10:02:09;95356.66;;;25.72;36.93
7834;BME280;3962;42.696;23.354;2023-05-07T10:04:36;95351.13;;;25.90;35.76
7834;BME280;3962;42.696;23.354;2023-05-07T10:07:04;95351.72;;;25.92;35.72
7834;BME280;3962;42.696;23.354;2023-05-07T10:09:32;95349.09;;;25.85;35.16
7834;BME280;3962;42.696;23.354;2023-05-07T10:11:59;95350.19;;;25.73;35.75
7834;BME280;3962;42.696;23.354;2023-05-07T10:14:28;95346.75;;;25.43;35.26
7834;BME280;3962;42.696;23.354;2023-05-07T10:16:54;95340.56;;;25.24;34.82
7834;BME280;3962;42.696;23.354;2023-05-07T10:19:22;95342.22;;;24.73;36.02
7834;BME280;3962;42.696;23.354;2023-05-07T10:21:54;95332.13;;;25.14;35.27
7834;BME280;3962;42.696;23.354;2023-05-07T10:24:25;95332.00;;;24.57;35.70
7834;BME280;3962;42.696;23.354;2023-05-07T10:26:55;95326.91;;;23.16;38.12
7834;BME280;3962;42.696;23.354;2023-05-07T10:29:33;95313.63;;;22.84;39.43
7834;BME280;3962;42.696;23.354;2023-05-07T10:32:14;95319.66;;;22.86;39.52
7834;BME280;3962;42.696;23.354;2023-05-07T10:34:48;95319.44;;;22.88;39.92
7834;BME280;3962;42.696;23.354;2023-05-07T10:37:17;95320.09;;;22.83;39.40
7834;BME280;3962;42.696;23.354;2023-05-07T10:39:44;95315.03;;;22.62;39.29
7834;BME280;3962;42.696;23.354;2023-05-07T10:42:12;95303.25;;;23.23;37.94
7834;BME280;3962;42.696;23.354;2023-05-07T10:44:41;95302.31;;;24.08;36.48
7834;BME280;3962;42.696;23.354;2023-05-07T10:47:09;95310.41;;;23.96;37.14
7834;BME280;3962;42.696;23.354;2023-05-07T10:49:37;95296.81;;;23.60;37.88
7834;BME280;3962;42.696;23.354;2023-05-07T10:52:15;95305.94;;;23.84;37.12
7834;BME280;3962;42.696;23.354;2023-05-07T10:54:42;95302.22;;;24.44;36.42
7834;BME280;3962;42.696;23.354;2023-05-07T10:57:34;95299.66;;;24.90;35.69
7834;BME280;3962;42.696;23.354;2023-05-07T11:00:04;95298.72;;;24.96;36.14
7834;BME280;3962;42.696;23.354;2023-05-07T11:03:06;95294.88;;;24.74;34.87
7834;BME280;3962;42.696;23.354;2023-05-07T11:05:34;95304.72;;;24.86;36.15
7834;BME280;3962;42.696;23.354;2023-05-07T11:08:02;95291.88;;;25.16;35.15
7834;BME280;3962;42.696;23.354;2023-05-07T11:10:49;95295.78;;;25.43;35.66
7834;BME280;3962;42.696;23.354;2023-05-07T11:13:16;95295.72;;;26.01;35.00
7834;BME280;3962;42.696;23.354;2023-05-07T11:15:46;95293.50;;;25.98;33.48
7834;BME280;3962;42.696;23.354;2023-05-07T11:18:14;95300.50;;;25.71;33.76
7834;BME280;3962;42.696;23.354;2023-05-07T11:26:47;95285.56;;;25.16;32.63
7834;BME280;3962;42.696;23.354;2023-05-07T11:29:16;95278.59;;;25.66;32.22
7834;BME280;3962;42.696;23.354;2023-05-07T11:31:48;95278.84;;;25.53;32.23
7834;BME280;3962;42.696;23.354;2023-05-07T11:34:15;95279.56;;;25.48;31.89
7834;BME280;3962;42.696;23.354;2023-05-07T11:36:47;95273.91;;;25.50;33.37
7834;BME280;3962;42.696;23.354;2023-05-07T11:39:27;95276.00;;;25.48;33.53
7834;BME280;3962;42.696;23.354;2023-05-07T11:41:55;95266.22;;;25.86;32.20
7834;BME280;3962;42.696;23.354;2023-05-07T11:44:22;95270.84;;;25.86;33.26
7834;BME280;3962;42.696;23.354;2023-05-07T11:46:50;95265.75;;;26.57;31.75
7834;BME280;3962;42.696;23.354;2023-05-07T11:49:17;95268.72;;;27.00;30.97
7834;BME280;3962;42.696;23.354;2023-05-07T11:51:44;95265.69;;;26.68;32.47
7834;BME280;3962;42.696;23.354;2023-05-07T11:54:15;95266.34;;;26.59;30.59
7834;BME280;3962;42.696;23.354;2023-05-07T11:56:43;95262.59;;;26.48;31.41
7834;BME280;3962;42.696;23.354;2023-05-07T11:59:10;95263.44;;;26.37;30.21
7834;BME280;3962;42.696;23.354;2023-05-07T12:01:37;95254.19;;;26.38;30.46
7834;BME280;3962;42.696;23.354;2023-05-07T12:04:05;95261.50;;;25.93;31.36
7834;BME280;3962;42.696;23.354;2023-05-07T12:06:36;95254.69;;;25.45;32.42
7834;BME280;3962;42.696;23.354;2023-05-07T12:09:03;95255.31;;;25.24;33.21
7834;BME280;3962;42.696;23.354;2023-05-07T12:11:32;95246.53;;;25.10;32.87
7834;BME280;3962;42.696;23.354;2023-05-07T12:13:59;95244.72;;;24.93;33.63
7834;BME280;3962;42.696;23.354;2023-05-07T12:16:26;95251.50;;;25.25;33.83
7834;BME280;3962;42.696;23.354;2023-05-07T12:18:56;95238.72;;;25.02;32.80
7834;BME280;3962;42.696;23.354;2023-05-07T12:21:25;95244.28;;;25.42;32.45
7834;BME280;3962;42.696;23.354;2023-05-07T12:23:52;95235.84;;;25.43;33.33
7834;BME280;3962;42.696;23.354;2023-05-07T12:26:19;95231.78;;;25.69;32.38
7834;BME280;3962;42.696;23.354;2023-05-07T12:28:47;95232.53;;;25.53;30.06
7834;BME280;3962;42.696;23.354;2023-05-07T12:31:14;95226.41;;;25.34;30.31
7834;BME280;3962;42.696;23.354;2023-05-07T12:33:42;95217.50;;;26.01;29.09
7834;BME280;3962;42.696;23.354;2023-05-07T12:36:12;95225.13;;;25.88;29.68
7834;BME280;3962;42.696;23.354;2023-05-07T12:38:40;95225.28;;;25.58;29.36
7834;BME280;3962;42.696;23.354;2023-05-07T12:41:08;95215.06;;;25.26;29.88
7834;BME280;3962;42.696;23.354;2023-05-07T12:43:36;95207.63;;;25.61;29.96
7834;BME280;3962;42.696;23.354;2023-05-07T12:46:04;95215.13;;;25.54;30.25
7834;BME280;3962;42.696;23.354;2023-05-07T12:48:32;95206.97;;;25.31;30.43
7834;BME280;3962;42.696;23.354;2023-05-07T12:51:00;95208.28;;;25.28;31.00
7834;BME280;3962;42.696;23.354;2023-05-07T12:53:29;95201.69;;;25.24;31.37
7834;BME280;3962;42.696;23.354;2023-05-07T12:55:59;95194.69;;;24.82;32.06
7834;BME280;3962;42.696;23.354;2023-05-07T12:58:27;95187.22;;;24.89;31.93
7834;BME280;3962;42.696;23.354;2023-05-07T13:00:56;95183.81;;;24.71;31.85
7834;BME280;3962;42.696;23.354;2023-05-07T13:03:27;95190.06;;;24.94;31.83
7834;BME280;3962;42.696;23.354;2023-05-07T13:05:57;95181.53;;;25.37;31.49
7834;BME280;3962;42.696;23.354;2023-05-07T13:08:29;95190.38;;;25.55;31.41
7834;BME280;3962;42.696;23.354;2023-05-07T13:10:59;95185.31;;;25.75;30.21
7834;BME280;3962;42.696;23.354;2023-05-07T13:13:28;95188.81;;;25.99;30.30
7834;BME280;3962;42.696;23.354;2023-05-07T13:15:55;95182.28;;;26.00;30.31
7834;BME280;3962;42.696;23.354;2023-05-07T13:18:22;95181.38;;;25.83;30.90
7834;BME280;3962;42.696;23.354;2023-05-07T13:20:49;95175.16;;;25.59;31.50
7834;BME280;3962;42.696;23.354;2023-05-07T13:23:16;95189.25;;;25.68;32.68